createdAt,value
2023-03-24T00:00:17.603Z,96761.09
2023-03-24T00:02:47.780Z,96757.06
2023-03-24T00:05:20.019Z,96755.78
2023-03-24T00:07:54.491Z,96753.09
2023-03-24T00:10:24.286Z,96755.72
2023-03-24T00:12:53.164Z,96756.56
2023-03-24T00:15:24.631Z,96755.78
2023-03-24T00:17:56.295Z,96767.78
2023-03-24T00:20:26.863Z,96761.16
2023-03-24T00:22:59.363Z,96757.91
2023-03-24T00:25:36.700Z,96754.38
2023-03-24T00:28:07.063Z,96761.31
2023-03-24T00:30:36.316Z,96750.56
2023-03-24T00:33:05.330Z,96753.72
2023-03-24T00:35:34.979Z,96750.16
2023-03-24T00:38:04.515Z,96753.50
2023-03-24T00:40:33.270Z,96755.78
2023-03-24T00:43:02.340Z,96753.28
2023-03-24T00:45:35.037Z,96746.47
2023-03-24T00:48:05.592Z,96756.13
2023-03-24T00:50:35.609Z,96757.88
2023-03-24T00:53:04.761Z,96753.69
2023-03-24T00:55:34.723Z,96758.50
2023-03-24T00:58:04.131Z,96755.75
2023-03-24T01:00:34.316Z,96748.06
2023-03-24T01:03:04.550Z,96746.16
2023-03-24T01:05:33.844Z,96745.00
2023-03-24T01:08:08.165Z,96735.53
2023-03-24T01:10:50.982Z,96740.38
2023-03-24T01:13:29.331Z,96745.38
2023-03-24T01:15:58.574Z,96749.19
2023-03-24T01:18:28.559Z,96744.94
2023-03-24T01:20:58.969Z,96753.53
2023-03-24T01:23:28.632Z,96737.56
2023-03-24T01:25:57.894Z,96739.72
2023-03-24T01:28:27.989Z,96741.41
2023-03-24T01:30:57.184Z,96743.03
2023-03-24T01:33:26.216Z,96736.75
2023-03-24T01:35:55.136Z,96743.88
2023-03-24T01:38:24.032Z,96747.78
2023-03-24T01:40:54.168Z,96735.28
2023-03-24T01:43:31.780Z,96731.41
2023-03-24T01:46:30.564Z,96728.91
2023-03-24T01:49:18.762Z,96730.81
2023-03-24T01:51:50.863Z,96738.84
2023-03-24T01:54:37.553Z,96727.81
2023-03-24T01:57:14.978Z,96735.22
2023-03-24T01:59:50.132Z,96736.41
2023-03-24T02:02:47.521Z,96736.69
2023-03-24T02:05:25.612Z,96743.31
2023-03-24T02:08:00.125Z,96746.28
2023-03-24T02:10:34.004Z,96739.50
2023-03-24T02:13:04.644Z,96733.13
2023-03-24T02:15:38.744Z,96731.09
2023-03-24T02:18:23.159Z,96729.19
2023-03-24T02:21:11.624Z,96727.66
2023-03-24T02:24:19.117Z,96733.13
2023-03-24T02:26:57.709Z,96727.25
2023-03-24T02:29:52.804Z,96723.47
2023-03-24T02:32:46.024Z,96724.19
2023-03-24T02:35:17.472Z,96726.94
2023-03-24T02:38:05.007Z,96730.41
2023-03-24T02:40:47.361Z,96722.72
2023-03-24T02:43:37.773Z,96714.69
2023-03-24T02:46:29.807Z,96701.53
2023-03-24T02:49:26.868Z,96702.25
2023-03-24T02:52:18.083Z,96693.03
2023-03-24T02:54:56.413Z,96690.56
2023-03-24T02:57:44.317Z,96688.81
2023-03-24T03:01:00.305Z,96684.44
2023-03-24T03:03:53.795Z,96677.47
2023-03-24T03:06:30.181Z,96677.00
2023-03-24T03:09:04.682Z,96675.81
2023-03-24T03:11:33.480Z,96673.16
2023-03-24T03:14:18.712Z,96671.69
2023-03-24T03:16:54.386Z,96675.16
2023-03-24T03:19:34.925Z,96667.06
2023-03-24T03:22:06.995Z,96664.19
2023-03-24T03:24:44.071Z,96661.63
2023-03-24T03:27:21.398Z,96670.78
2023-03-24T03:29:57.622Z,96664.63
2023-03-24T03:32:35.219Z,96662.69
2023-03-24T03:35:27.637Z,96667.22
2023-03-24T03:38:22.463Z,96661.50
2023-03-24T03:41:00.270Z,96665.56
2023-03-24T03:43:35.482Z,96658.13
2023-03-24T03:46:07.083Z,96654.56
2023-03-24T03:48:41.227Z,96646.72
2023-03-24T03:51:14.168Z,96636.59
2023-03-24T03:54:03.244Z,96639.16
2023-03-24T03:56:36.066Z,96641.25
2023-03-24T03:59:38.674Z,96646.22
2023-03-24T04:02:31.358Z,96644.84
2023-03-24T04:05:14.657Z,96646.38
2023-03-24T04:08:29.289Z,96637.69
2023-03-24T04:11:47.398Z,96642.44
2023-03-24T04:15:09.298Z,96638.09
2023-03-24T04:18:28.775Z,96630.00
2023-03-24T04:21:33.954Z,96630.75
2023-03-24T04:24:33.432Z,96634.19
2023-03-24T04:27:15.237Z,96623.88
2023-03-24T04:29:56.161Z,96631.50
2023-03-24T04:32:54.915Z,96626.34
2023-03-24T04:35:43.250Z,96633.09
2023-03-24T04:38:28.373Z,96616.41
2023-03-24T04:41:14.725Z,96610.75
2023-03-24T04:43:48.070Z,96599.13
2023-03-24T04:46:18.690Z,96593.31
2023-03-24T04:48:53.854Z,96600.28
2023-03-24T04:51:30.378Z,96602.56
2023-03-24T04:54:14.008Z,96601.34
2023-03-24T04:56:55.894Z,96590.53
2023-03-24T04:59:31.426Z,96591.75
2023-03-24T05:02:04.806Z,96585.91
2023-03-24T05:04:39.408Z,96588.94
2023-03-24T05:07:19.822Z,96594.69
2023-03-24T05:09:51.626Z,96577.16
2023-03-24T05:12:20.422Z,96585.16
2023-03-24T05:15:08.064Z,96579.97
2023-03-24T05:17:38.607Z,96581.81
2023-03-24T05:20:11.752Z,96570.84
2023-03-24T05:22:43.940Z,96582.81
2023-03-24T05:25:13.256Z,96586.72
2023-03-24T05:27:42.947Z,96577.69
2023-03-24T05:30:21.118Z,96561.03
2023-03-24T05:32:54.218Z,96567.06
2023-03-24T05:35:23.828Z,96567.69
2023-03-24T05:37:52.806Z,96554.88
2023-03-24T05:40:21.747Z,96568.78
2023-03-24T05:42:58.254Z,96558.13
2023-03-24T05:45:31.832Z,96556.47
2023-03-24T05:48:02.518Z,96556.34
2023-03-24T05:50:49.071Z,96552.06
2023-03-24T05:53:17.809Z,96542.78
2023-03-24T05:56:06.524Z,96538.81
2023-03-24T05:58:53.800Z,96526.84
2023-03-24T06:01:24.053Z,96538.09
2023-03-24T06:04:00.459Z,96538.00
2023-03-24T06:06:29.560Z,96522.09
2023-03-24T06:08:59.128Z,96524.38
2023-03-24T06:11:29.482Z,96542.63
2023-03-24T06:14:05.177Z,96529.03
2023-03-24T06:16:44.586Z,96524.34
2023-03-24T06:19:17.990Z,96523.25
2023-03-24T06:22:01.040Z,96527.25
2023-03-24T06:24:33.097Z,96519.97
2023-03-24T06:27:09.613Z,96526.13
2023-03-24T06:29:39.132Z,96521.38
2023-03-24T06:32:08.860Z,96517.63
2023-03-24T06:34:44.839Z,96510.56
2023-03-24T06:37:19.978Z,96503.63
2023-03-24T06:39:48.673Z,96501.56
2023-03-24T06:42:20.266Z,96504.69
2023-03-24T06:44:50.054Z,96498.03
2023-03-24T06:47:19.585Z,96503.91
2023-03-24T06:49:49.312Z,96501.19
2023-03-24T06:52:18.604Z,96490.34
2023-03-24T06:54:47.577Z,96489.06
2023-03-24T06:57:17.383Z,96486.72
2023-03-24T07:00:07.474Z,96495.69
2023-03-24T07:02:44.238Z,96472.78
2023-03-24T07:05:14.031Z,96486.69
2023-03-24T07:10:40.298Z,96465.66
2023-03-24T07:13:10.602Z,96479.69
2023-03-24T07:15:41.899Z,96458.06
2023-03-24T07:18:14.216Z,96449.09
2023-03-24T07:20:45.710Z,96460.91
2023-03-24T07:23:17.447Z,96463.81
2023-03-24T07:25:55.875Z,96449.66
2023-03-24T07:28:44.793Z,96455.50
2023-03-24T07:31:14.719Z,96455.91
2023-03-24T07:33:45.302Z,96450.00
2023-03-24T07:36:15.731Z,96429.50
2023-03-24T07:38:44.912Z,96444.38
2023-03-24T07:41:22.128Z,96444.38
2023-03-24T07:43:56.621Z,96429.34
2023-03-24T07:46:35.035Z,96446.72
2023-03-24T07:49:18.129Z,96458.69
2023-03-24T07:51:54.724Z,96449.72
2023-03-24T07:54:27.667Z,96440.03
2023-03-24T07:56:57.433Z,96440.97
2023-03-24T07:59:27.952Z,96436.69
2023-03-24T08:02:21.176Z,96430.91
2023-03-24T08:05:06.435Z,96430.28
2023-03-24T08:07:56.145Z,96436.53
2023-03-24T08:10:28.343Z,96439.34
2023-03-24T08:12:59.168Z,96427.25
2023-03-24T08:15:29.113Z,96417.47
2023-03-24T08:17:58.282Z,96427.75
2023-03-24T08:20:27.824Z,96418.06
2023-03-24T08:22:56.966Z,96414.50
2023-03-24T08:25:27.319Z,96416.13
2023-03-24T08:27:56.738Z,96413.81
2023-03-24T08:30:27.351Z,96414.59
2023-03-24T08:32:59.917Z,96398.31
2023-03-24T08:35:34.769Z,96411.56
2023-03-24T08:38:06.874Z,96415.44
2023-03-24T08:40:38.007Z,96409.56
2023-03-24T08:43:10.302Z,96405.78
2023-03-24T08:45:39.725Z,96399.31
2023-03-24T08:48:10.528Z,96397.72
2023-03-24T08:50:42.880Z,96402.44
2023-03-24T08:53:13.082Z,96402.63
2023-03-24T08:55:44.282Z,96398.44
2023-03-24T08:58:19.220Z,96397.84
2023-03-24T09:00:50.014Z,96388.81
2023-03-24T09:03:23.026Z,96400.03
2023-03-24T09:05:52.060Z,96392.97
2023-03-24T09:08:21.670Z,96389.81
2023-03-24T09:10:51.965Z,96398.84
2023-03-24T09:13:21.842Z,96396.66
2023-03-24T09:15:58.781Z,96396.69
2023-03-24T09:18:27.381Z,96396.63
2023-03-24T09:20:56.796Z,96388.84
2023-03-24T09:23:25.866Z,96394.56
2023-03-24T09:25:55.037Z,96398.31
2023-03-24T09:28:28.637Z,96387.41
2023-03-24T09:30:59.783Z,96397.81
2023-03-24T09:33:30.596Z,96392.88
2023-03-24T09:36:01.901Z,96388.47
2023-03-24T09:38:31.070Z,96396.81
2023-03-24T09:41:03.387Z,96391.38
2023-03-24T09:43:43.188Z,96394.75
2023-03-24T09:46:22.143Z,96382.47
2023-03-24T09:48:58.087Z,96382.66
2023-03-24T09:51:30.092Z,96385.97
2023-03-24T09:54:23.408Z,96392.56
2023-03-24T09:56:52.694Z,96379.00
2023-03-24T09:59:31.867Z,96388.03
2023-03-24T10:02:01.354Z,96388.09
2023-03-24T10:04:32.780Z,96379.97
2023-03-24T10:07:23.319Z,96375.44
2023-03-24T10:09:59.953Z,96388.19
2023-03-24T10:12:49.227Z,96379.03
2023-03-24T10:15:35.112Z,96381.09
2023-03-24T10:18:34.789Z,96369.16
2023-03-24T10:21:18.416Z,96388.78
2023-03-24T10:23:47.182Z,96390.44
2023-03-24T10:26:33.837Z,96373.53
2023-03-24T10:29:36.941Z,96382.34
2023-03-24T10:32:23.536Z,96374.88
2023-03-24T10:34:57.335Z,96370.13
2023-03-24T10:37:26.232Z,96381.28
2023-03-24T10:39:55.144Z,96375.25
2023-03-24T10:42:29.235Z,96388.38
2023-03-24T10:44:58.520Z,96368.75
2023-03-24T10:47:32.838Z,96379.72
2023-03-24T10:50:14.293Z,96378.25
2023-03-24T10:52:49.412Z,96383.97
2023-03-24T10:55:20.937Z,96377.72
2023-03-24T10:57:54.405Z,96385.22
2023-03-24T11:00:33.101Z,96376.38
2023-03-24T11:03:09.413Z,96380.41
2023-03-24T11:05:41.261Z,96376.75
2023-03-24T11:08:29.025Z,96373.69
2023-03-24T11:10:58.149Z,96373.00
2023-03-24T11:13:35.505Z,96373.13
2023-03-24T11:16:17.283Z,96379.00
2023-03-24T11:19:02.919Z,96378.84
2023-03-24T11:21:38.182Z,96388.19
2023-03-24T11:24:16.690Z,96380.59
2023-03-24T11:27:03.927Z,96386.00
2023-03-24T11:29:34.044Z,96383.69
2023-03-24T11:32:06.028Z,96384.81
2023-03-24T11:34:42.647Z,96379.59
2023-03-24T11:37:28.371Z,96382.53
2023-03-24T11:40:18.175Z,96394.16
2023-03-24T11:42:51.977Z,96384.94
2023-03-24T11:45:29.665Z,96385.75
2023-03-24T11:48:00.306Z,96389.97
2023-03-24T11:50:36.786Z,96388.44
2023-03-24T11:53:29.215Z,96376.88
2023-03-24T11:56:13.022Z,96399.84
2023-03-24T11:58:49.628Z,96400.13
2023-03-24T12:01:22.205Z,96401.75
2023-03-24T12:04:09.461Z,96408.34
2023-03-24T12:06:50.621Z,96410.50
2023-03-24T12:09:33.391Z,96404.72
2023-03-24T12:12:09.371Z,96402.34
2023-03-24T12:14:56.769Z,96398.16
2023-03-24T12:17:32.535Z,96406.06
2023-03-24T12:20:38.133Z,96406.59
2023-03-24T12:23:21.450Z,96417.16
2023-03-24T12:26:11.008Z,96420.03
2023-03-24T12:28:56.013Z,96416.38
2023-03-24T12:31:55.483Z,96410.28
2023-03-24T12:35:11.049Z,96419.25
2023-03-24T12:37:40.861Z,96418.97
2023-03-24T12:40:32.278Z,96425.06
2023-03-24T12:43:21.735Z,96417.41
2023-03-24T12:45:54.875Z,96427.44
2023-03-24T12:48:52.149Z,96427.94
2023-03-24T12:51:39.826Z,96430.31
2023-03-24T12:54:26.667Z,96434.53
2023-03-24T12:57:12.822Z,96429.81
2023-03-24T13:00:12.369Z,96435.31
2023-03-24T13:03:05.578Z,96429.25
2023-03-24T13:05:40.140Z,96433.75
2023-03-24T13:08:39.109Z,96431.66
2023-03-24T13:11:21.813Z,96425.84
2023-03-24T13:13:57.093Z,96430.84
2023-03-24T13:16:32.707Z,96429.00
2023-03-24T13:19:03.437Z,96424.25
2023-03-24T13:21:36.017Z,96423.72
2023-03-24T13:24:15.446Z,96432.94
2023-03-24T13:26:51.013Z,96431.09
2023-03-24T13:29:49.269Z,96425.31
2023-03-24T13:32:22.568Z,96429.25
2023-03-24T13:35:16.691Z,96429.50
2023-03-24T13:37:58.010Z,96423.72
2023-03-24T13:40:33.186Z,96427.38
2023-03-24T13:43:12.771Z,96423.69
2023-03-24T13:45:54.708Z,96419.25
2023-03-24T13:48:39.122Z,96427.38
2023-03-24T13:51:18.828Z,96415.53
2023-03-24T13:54:02.747Z,96422.63
2023-03-24T13:56:46.395Z,96420.00
2023-03-24T13:59:31.319Z,96427.38
2023-03-24T14:02:19.915Z,96424.75
2023-03-24T14:05:32.400Z,96411.81
2023-03-24T14:08:07.249Z,96426.03
2023-03-24T14:10:46.594Z,96425.22
2023-03-24T14:13:15.501Z,96425.22
2023-03-24T14:15:57.356Z,96425.22
2023-03-24T14:18:26.426Z,96425.50
2023-03-24T14:20:58.739Z,96412.34
2023-03-24T14:23:50.495Z,96408.13
2023-03-24T14:26:23.733Z,96422.06
2023-03-24T14:28:54.909Z,96422.59
2023-03-24T14:31:31.597Z,96421.81
2023-03-24T14:34:02.964Z,96422.59
2023-03-24T14:36:42.066Z,96422.56
2023-03-24T14:39:27.719Z,96417.28
2023-03-24T14:41:58.710Z,96419.38
2023-03-24T14:44:54.132Z,96424.91
2023-03-24T14:47:29.897Z,96416.50
2023-03-24T14:50:02.487Z,96415.69
2023-03-24T14:52:45.422Z,96411.22
2023-03-24T14:55:20.243Z,96419.09
2023-03-24T14:57:57.536Z,96423.81
2023-03-24T15:00:32.679Z,96424.63
2023-03-24T15:03:32.550Z,96423.81
2023-03-24T15:06:24.981Z,96423.56
2023-03-24T15:08:55.848Z,96427.75
2023-03-24T15:11:44.691Z,96424.84
2023-03-24T15:14:25.759Z,96428.00
2023-03-24T15:17:25.876Z,96431.94
2023-03-24T15:19:56.168Z,96432.72
2023-03-24T15:22:28.012Z,96435.06
2023-03-24T15:25:00.728Z,96425.38
2023-03-24T15:27:32.252Z,96427.47
2023-03-24T15:30:01.648Z,96431.44
2023-03-24T15:32:39.586Z,96425.88
2023-03-24T15:35:13.343Z,96435.59
2023-03-24T15:37:48.858Z,96434.00
2023-03-24T15:40:30.937Z,96424.75
2023-03-24T15:43:08.655Z,96439.22
2023-03-24T15:46:01.120Z,96439.00
2023-03-24T15:48:39.296Z,96431.66
2023-03-24T15:51:12.060Z,96429.59
2023-03-24T15:53:46.307Z,96429.88
2023-03-24T15:56:28.040Z,96433.53
2023-03-24T15:58:58.348Z,96435.69
2023-03-24T16:01:37.009Z,96436.00
2023-03-24T16:04:07.792Z,96433.94
2023-03-24T16:06:37.633Z,96439.22
2023-03-24T16:09:11.521Z,96431.59
2023-03-24T16:11:42.108Z,96432.94
2023-03-24T16:14:33.350Z,96433.75
2023-03-24T16:17:07.698Z,96436.63
2023-03-24T16:19:36.578Z,96437.19
2023-03-24T16:22:12.315Z,96429.81
2023-03-24T16:24:41.514Z,96431.63
2023-03-24T16:27:12.968Z,96429.28
2023-03-24T16:29:43.950Z,96426.91
2023-03-24T16:32:13.142Z,96427.97
2023-03-24T16:34:42.753Z,96429.78
2023-03-24T16:37:11.536Z,96431.34
2023-03-24T16:39:40.957Z,96429.25
2023-03-24T16:42:10.470Z,96427.13
2023-03-24T16:44:39.247Z,96432.94
2023-03-24T16:47:12.083Z,96419.22
2023-03-24T16:49:41.418Z,96426.31
2023-03-24T16:52:14.255Z,96428.94
2023-03-24T16:54:43.046Z,96420.47
2023-03-24T16:57:11.867Z,96424.66
2023-03-24T16:59:40.984Z,96424.44
2023-03-24T17:02:11.947Z,96425.97
2023-03-24T17:04:41.895Z,96429.44
2023-03-24T17:07:10.964Z,96417.03
2023-03-24T17:09:39.889Z,96421.75
2023-03-24T17:12:11.670Z,96418.31
2023-03-24T17:14:40.986Z,96412.22
2023-03-24T17:17:12.355Z,96407.47
2023-03-24T17:19:43.737Z,96411.94
2023-03-24T17:22:17.797Z,96409.84
2023-03-24T17:24:48.726Z,96411.13
2023-03-24T17:27:21.844Z,96400.84
2023-03-24T17:29:50.937Z,96399.03
2023-03-24T17:32:21.829Z,96408.81
2023-03-24T17:34:51.534Z,96415.16
2023-03-24T17:37:20.622Z,96396.19
2023-03-24T17:39:49.437Z,96414.41
2023-03-24T17:42:18.492Z,96409.66
2023-03-24T17:44:47.388Z,96409.16
2023-03-24T17:47:16.730Z,96408.38
2023-03-24T17:49:45.646Z,96413.41
2023-03-24T17:52:14.964Z,96405.22
2023-03-24T17:54:45.417Z,96408.13
2023-03-24T17:57:15.452Z,96415.25
2023-03-24T17:59:44.915Z,96407.34
2023-03-24T18:02:15.147Z,96408.41
2023-03-24T18:04:44.197Z,96403.66
2023-03-24T18:07:13.064Z,96405.53
2023-03-24T18:09:41.889Z,96406.31
2023-03-24T18:12:10.791Z,96402.88
2023-03-24T18:14:39.544Z,96402.34
2023-03-24T18:17:09.968Z,96399.97
2023-03-24T18:19:38.992Z,96402.34
2023-03-24T18:22:07.715Z,96397.84
2023-03-24T18:24:39.279Z,96395.75
2023-03-24T18:27:10.417Z,96398.13
2023-03-24T18:29:39.940Z,96394.16
2023-03-24T18:32:08.748Z,96397.06
2023-03-24T18:34:39.457Z,96395.75
2023-03-24T18:37:08.241Z,96391.28
2023-03-24T18:39:37.064Z,96388.91
2023-03-24T18:42:06.737Z,96388.13
2023-03-24T18:44:35.764Z,96386.03
2023-03-24T18:47:04.584Z,96388.91
2023-03-24T18:49:33.437Z,96375.97
2023-03-24T18:52:02.279Z,96376.50
2023-03-24T18:54:31.036Z,96380.97
2023-03-24T18:57:00.224Z,96375.69
2023-03-24T18:59:29.161Z,96381.22
2023-03-24T19:01:58.797Z,96370.38
2023-03-24T19:04:28.033Z,96367.72
2023-03-24T19:06:57.004Z,96371.41
2023-03-24T19:09:26.302Z,96360.59
2023-03-24T19:11:55.028Z,96362.44
2023-03-24T19:14:25.785Z,96363.47
2023-03-24T19:16:54.540Z,96358.22
2023-03-24T19:19:23.332Z,96353.47
2023-03-24T19:21:52.198Z,96358.75
2023-03-24T19:24:21.348Z,96354.53
2023-03-24T19:26:50.046Z,96354.81
2023-03-24T19:29:18.867Z,96365.88
2023-03-24T19:31:50.116Z,96349.28
2023-03-24T19:34:19.135Z,96356.41
2023-03-24T19:36:49.666Z,96348.00
2023-03-24T19:39:18.608Z,96347.75
2023-03-24T19:41:47.369Z,96350.16
2023-03-24T19:44:16.140Z,96340.66
2023-03-24T19:46:44.917Z,96353.31
2023-03-24T19:49:13.910Z,96356.47
2023-03-24T19:51:42.667Z,96354.91
2023-03-24T19:54:11.475Z,96346.47
2023-03-24T19:56:40.317Z,96348.06
2023-03-24T19:59:09.340Z,96342.00
2023-03-24T20:01:39.056Z,96348.56
2023-03-24T20:04:08.125Z,96335.94
2023-03-24T20:06:37.096Z,96343.03
2023-03-24T20:09:06.126Z,96345.66
2023-03-24T20:11:34.954Z,96340.88
2023-03-24T20:14:05.119Z,96342.72
2023-03-24T20:16:34.014Z,96334.81
2023-03-24T20:19:02.988Z,96347.72
2023-03-24T20:21:31.944Z,96338.72
2023-03-24T20:24:01.194Z,96345.88
2023-03-24T20:26:30.380Z,96341.91
2023-03-24T20:28:59.143Z,96341.09
2023-03-24T20:31:28.554Z,96343.22
2023-03-24T20:33:57.241Z,96342.94
2023-03-24T20:36:26.128Z,96344.78
2023-03-24T20:38:54.865Z,96338.97
2023-03-24T20:41:23.589Z,96337.59
2023-03-24T20:43:53.022Z,96345.78
2023-03-24T20:46:21.853Z,96336.81
2023-03-24T20:48:51.079Z,96343.13
2023-03-24T20:51:21.237Z,96345.28
2023-03-24T20:53:50.159Z,96341.06
2023-03-24T20:56:19.533Z,96333.16
2023-03-24T20:58:48.449Z,96326.84
2023-03-24T21:01:22.781Z,96333.19
2023-03-24T21:03:53.501Z,96334.53
2023-03-24T21:06:22.791Z,96324.56
2023-03-24T21:08:53.125Z,96331.16
2023-03-24T21:11:22.346Z,96327.00
2023-03-24T21:13:51.129Z,96328.84
2023-03-24T21:16:21.641Z,96335.44
2023-03-24T21:18:50.508Z,96322.00
2023-03-24T21:21:19.273Z,96329.13
2023-03-24T21:23:48.055Z,96333.38
2023-03-24T21:26:18.556Z,96332.59
2023-03-24T21:28:47.326Z,96337.31
2023-03-24T21:31:18.897Z,96336.53
2023-03-24T21:33:48.141Z,96338.38
2023-03-24T21:36:17.563Z,96341.00
2023-03-24T21:38:52.535Z,96338.09
2023-03-24T21:41:22.831Z,96343.88
2023-03-24T21:43:54.736Z,96341.25
2023-03-24T21:46:27.179Z,96339.38
2023-03-24T21:48:59.804Z,96341.53
2023-03-24T21:51:34.727Z,96331.78
2023-03-24T21:54:07.031Z,96338.63
2023-03-24T21:56:38.919Z,96332.56
2023-03-24T21:59:07.759Z,96334.72
2023-03-24T22:01:37.518Z,96334.44
2023-03-24T22:04:09.309Z,96329.44
2023-03-24T22:06:38.286Z,96331.53
2023-03-24T22:09:08.741Z,96342.56
2023-03-24T22:11:43.115Z,96338.06
2023-03-24T22:14:13.179Z,96322.78
2023-03-24T22:16:41.921Z,96326.44
2023-03-24T22:19:10.796Z,96331.44
2023-03-24T22:21:39.911Z,96327.22
2023-03-24T22:24:08.906Z,96330.09
2023-03-24T22:26:37.686Z,96320.88
2023-03-24T22:29:06.721Z,96334.56
2023-03-24T22:31:36.042Z,96328.50
2023-03-24T22:34:04.857Z,96327.19
2023-03-24T22:36:33.605Z,96320.38
2023-03-24T22:39:02.421Z,96321.94
2023-03-24T22:41:31.303Z,96322.97
2023-03-24T22:44:00.012Z,96328.47
2023-03-24T22:46:28.774Z,96321.88
2023-03-24T22:48:57.606Z,96325.28
2023-03-24T22:51:26.654Z,96327.34
2023-03-24T22:53:55.488Z,96332.28
2023-03-24T22:56:24.755Z,96326.97
2023-03-24T22:58:53.544Z,96325.91
2023-03-24T23:01:23.265Z,96330.06
2023-03-24T23:03:52.303Z,96329.53
2023-03-24T23:06:22.054Z,96317.19
2023-03-24T23:08:50.975Z,96331.13
2023-03-24T23:11:19.760Z,96327.41
2023-03-24T23:13:51.034Z,96331.84
2023-03-24T23:16:21.075Z,96322.69
2023-03-24T23:18:50.571Z,96321.94
2023-03-24T23:21:21.208Z,96333.78
2023-03-24T23:23:49.973Z,96342.50
2023-03-24T23:26:25.549Z,96337.25
2023-03-24T23:28:55.770Z,96336.22
2023-03-24T23:31:26.994Z,96336.50
2023-03-24T23:33:58.190Z,96334.41
2023-03-24T23:36:28.795Z,96336.28
2023-03-24T23:38:57.893Z,96339.44
2023-03-24T23:41:26.756Z,96341.81
2023-03-24T23:43:55.631Z,96339.72
2023-03-24T23:46:25.165Z,96339.75
2023-03-24T23:48:54.041Z,96342.94
2023-03-24T23:51:22.898Z,96338.50
2023-03-24T23:53:51.874Z,96338.28
2023-03-24T23:56:22.063Z,96335.09
2023-03-24T23:58:50.899Z,96336.97
